Elsberry, MO

5:37 AM CDT on September 20, 2014 (GMT -0500)
Blue Ridge | Change Station
CLOSE
Current Station
Personal Weather Station
Location: Hardin, IL
Elevation: 748 ft
Nearby Weather Stations

Elev 748 ft 39.15 °N, 90.65 °W | Updated 9 minutes ago

Clear
Clear
63.3 °F
Feels Like 63.3 °F
N
5.0
Wind Variable Wind from SSW
Gusts 8.0 mph

Today
High -- | Low -- °F
--% Chance of Precip.
Yesterday
High -- | Low -- °F
Precip. -- in
6:49 AM 7:03 PM
Waning Crescent, 13% visible
Pressure 29.98 in
Visibility 5.0 miles
Clouds Clear
Dew Point 61 °F
Humidity 93%
Rainfall 0.00 in
Snow Depth Not available.
UV 0 out of 12
Pollen 7.00 out of 12
Air Quality Not available.
Flu Activity Not available.
METAR KSET 200954Z AUTO 00000KT 5SM BR CLR 13/13 A2998 RMK AO1 SLP150 T01330128

More Conditions Fewer Conditions

Pressure 29.98 in
Visibility 5.0 miles
Clouds Clear
Dew Point 61 °F
Humidity 93%
Rainfall 0.00 in
Snow Depth Not available.
UV 0 out of 12
Pollen 7.00 out of 12
Air Quality Not available.
Flu Activity Not available.
METAR KSET 200954Z AUTO 00000KT 5SM BR CLR 13/13 A2998 RMK AO1 SLP150 T01330128

More Conditions Fewer Conditions

10-Day Weather Forecast

Almanac

Astronomy

Sep. 20, 2014 Rise Set
Actual Time 6:49 AM CDT 7:03 PM CDT
Civil Twilight 6:22 AM CDT 7:30 PM CDT
Nautical Twilight 5:51 AM CDT 8:01 PM CDT
Astronomical Twilight 5:19 AM CDT 8:33 PM CDT
Moon 3:29 AM CDT 5:06 PM CDT
Length of Visible Light 13h 07m
Length of Day
12h 14m
Tomorrow will be 2m 32s shorter.
Waning Crescent, 13% of the Moon is Illuminated
Today
Waning Crescent
Sep 24
New
Oct 1
First Quarter
Oct 8
Full
Oct 15
Last Quarter

Today's Extremes

State Highs State Lows

Community

WunderPhotos

Upload Photos

1,754,827 photos uploaded!

WunderBlogs® & News

Nearby

Snow Depth

Station Depth Elevation
No new snow has been reported.

Earthquake Activity

City Distance Mag. Time & Date
No recent earthquake activity has been reported nearby.
Minimum magnitude displayed is 2.5.

Coastal Water Temperatures

Place Temperature
No Stations Reporting

Nearby Weather Stations